sensor_id;sensor_type;location;lat;lon;timestamp;pressure;altitude;pressure_sealevel;temperature;humidity
15568;BME280;7885;42.596;23.044;2023-08-20T00:02:27;93214.03;;;20.52;83.11
15568;BME280;7885;42.596;23.044;2023-08-20T00:04:57;93213.53;;;20.66;82.79
15568;BME280;7885;42.596;23.044;2023-08-20T00:07:27;93218.16;;;20.70;82.24
15568;BME280;7885;42.596;23.044;2023-08-20T00:09:53;93192.13;;;20.58;81.87
15568;BME280;7885;42.596;23.044;2023-08-20T00:12:20;93211.28;;;20.74;81.57
15568;BME280;7885;42.596;23.044;2023-08-20T00:14:55;93196.38;;;20.72;81.53
15568;BME280;7885;42.596;23.044;2023-08-20T00:17:24;93217.00;;;20.80;81.80
15568;BME280;7885;42.596;23.044;2023-08-20T00:19:53;93180.56;;;20.50;82.70
15568;BME280;7885;42.596;23.044;2023-08-20T00:22:22;93199.00;;;20.53;83.53
15568;BME280;7885;42.596;23.044;2023-08-20T00:24:51;93214.56;;;20.60;84.12
15568;BME280;7885;42.596;23.044;2023-08-20T00:27:18;93216.75;;;20.65;84.22
15568;BME280;7885;42.596;23.044;2023-08-20T00:29:45;93205.75;;;20.52;84.07
15568;BME280;7885;42.596;23.044;2023-08-20T00:32:31;93220.22;;;20.56;84.33
15568;BME280;7885;42.596;23.044;2023-08-20T00:34:58;93210.56;;;20.39;83.76
15568;BME280;7885;42.596;23.044;2023-08-20T00:37:25;93183.78;;;20.14;83.98
15568;BME280;7885;42.596;23.044;2023-08-20T00:39:53;93209.41;;;20.28;84.58
15568;BME280;7885;42.596;23.044;2023-08-20T00:42:19;93211.59;;;20.33;84.66
15568;BME280;7885;42.596;23.044;2023-08-20T00:44:46;93209.38;;;20.40;84.65
15568;BME280;7885;42.596;23.044;2023-08-20T00:47:13;93213.88;;;20.00;86.29
15568;BME280;7885;42.596;23.044;2023-08-20T00:49:40;93188.06;;;19.94;86.33
15568;BME280;7885;42.596;23.044;2023-08-20T00:52:08;93200.84;;;20.00;86.43
15568;BME280;7885;42.596;23.044;2023-08-20T00:54:35;93193.28;;;19.92;86.63
15568;BME280;7885;42.596;23.044;2023-08-20T00:57:04;93197.66;;;20.02;86.45
15568;BME280;7885;42.596;23.044;2023-08-20T00:59:31;93214.84;;;20.18;85.89
15568;BME280;7885;42.596;23.044;2023-08-20T01:01:58;93198.06;;;20.13;86.15
15568;BME280;7885;42.596;23.044;2023-08-20T01:04:25;93211.94;;;20.22;85.33
15568;BME280;7885;42.596;23.044;2023-08-20T01:06:57;93205.13;;;20.14;85.72
15568;BME280;7885;42.596;23.044;2023-08-20T01:09:33;93210.75;;;20.10;85.80
15568;BME280;7885;42.596;23.044;2023-08-20T01:12:06;93208.47;;;20.09;86.17
15568;BME280;7885;42.596;23.044;2023-08-20T01:17:54;93180.72;;;20.00;86.26
15568;BME280;7885;42.596;23.044;2023-08-20T01:20:25;93212.19;;;20.15;86.29
15568;BME280;7885;42.596;23.044;2023-08-20T01:23:24;93200.06;;;20.00;87.06
15568;BME280;7885;42.596;23.044;2023-08-20T01:26:07;93189.13;;;19.75;88.25
15568;BME280;7885;42.596;23.044;2023-08-20T01:28:36;93162.41;;;19.59;88.61
15568;BME280;7885;42.596;23.044;2023-08-20T01:31:05;93161.94;;;19.73;88.50
15568;BME280;7885;42.596;23.044;2023-08-20T01:33:32;93166.13;;;19.78;88.26
15568;BME280;7885;42.596;23.044;2023-08-20T01:35:59;93181.31;;;19.95;87.87
15568;BME280;7885;42.596;23.044;2023-08-20T01:38:26;93196.63;;;20.08;87.49
15568;BME280;7885;42.596;23.044;2023-08-20T01:40:53;93208.22;;;20.16;87.72
15568;BME280;7885;42.596;23.044;2023-08-20T01:43:21;93195.38;;;20.22;87.31
15568;BME280;7885;42.596;23.044;2023-08-20T01:45:49;93192.69;;;20.31;86.61
15568;BME280;7885;42.596;23.044;2023-08-20T01:48:16;93202.31;;;20.27;86.57
15568;BME280;7885;42.596;23.044;2023-08-20T01:57:35;93196.69;;;20.30;86.26
15568;BME280;7885;42.596;23.044;2023-08-20T02:00:02;93187.03;;;20.35;86.15
15568;BME280;7885;42.596;23.044;2023-08-20T02:02:31;93186.47;;;20.40;85.84
15568;BME280;7885;42.596;23.044;2023-08-20T02:04:59;93194.25;;;20.54;85.57
15568;BME280;7885;42.596;23.044;2023-08-20T02:07:26;93193.47;;;20.53;85.77
15568;BME280;7885;42.596;23.044;2023-08-20T02:09:53;93185.00;;;20.48;85.98
15568;BME280;7885;42.596;23.044;2023-08-20T02:12:19;93188.84;;;20.50;85.80
15568;BME280;7885;42.596;23.044;2023-08-20T02:14:46;93178.69;;;20.47;86.08
15568;BME280;7885;42.596;23.044;2023-08-20T02:17:13;93178.94;;;20.40;86.81
15568;BME280;7885;42.596;23.044;2023-08-20T02:19:42;93167.72;;;20.22;87.03
15568;BME280;7885;42.596;23.044;2023-08-20T02:22:08;93181.66;;;20.18;87.28
15568;BME280;7885;42.596;23.044;2023-08-20T02:24:35;93187.03;;;20.00;87.70
15568;BME280;7885;42.596;23.044;2023-08-20T02:27:02;93189.16;;;19.96;88.03
15568;BME280;7885;42.596;23.044;2023-08-20T02:29:29;93176.03;;;19.88;88.48
15568;BME280;7885;42.596;23.044;2023-08-20T02:31:56;93172.97;;;19.86;88.69
15568;BME280;7885;42.596;23.044;2023-08-20T02:34:22;93163.38;;;19.78;88.94
15568;BME280;7885;42.596;23.044;2023-08-20T02:36:51;93191.72;;;19.91;89.01
15568;BME280;7885;42.596;23.044;2023-08-20T02:39:17;93196.03;;;19.92;88.66
15568;BME280;7885;42.596;23.044;2023-08-20T02:41:45;93179.03;;;19.81;89.10
15568;BME280;7885;42.596;23.044;2023-08-20T02:44:12;93203.06;;;19.93;89.46
15568;BME280;7885;42.596;23.044;2023-08-20T02:46:38;93200.66;;;19.95;89.12
15568;BME280;7885;42.596;23.044;2023-08-20T02:49:06;93193.59;;;19.94;89.47
15568;BME280;7885;42.596;23.044;2023-08-20T02:51:32;93203.41;;;19.95;89.44
15568;BME280;7885;42.596;23.044;2023-08-20T02:54:01;93192.69;;;19.97;89.19
15568;BME280;7885;42.596;23.044;2023-08-20T02:56:27;93195.19;;;20.04;89.09
15568;BME280;7885;42.596;23.044;2023-08-20T02:58:54;93195.97;;;20.04;89.03
15568;BME280;7885;42.596;23.044;2023-08-20T03:01:22;93199.94;;;20.03;89.26
15568;BME280;7885;42.596;23.044;2023-08-20T03:03:49;93205.16;;;20.01;89.51
15568;BME280;7885;42.596;23.044;2023-08-20T03:06:16;93192.78;;;20.06;90.11
15568;BME280;7885;42.596;23.044;2023-08-20T03:08:42;93197.28;;;20.12;89.74
15568;BME280;7885;42.596;23.044;2023-08-20T03:11:11;93191.88;;;20.09;89.99
15568;BME280;7885;42.596;23.044;2023-08-20T03:13:37;93197.16;;;20.16;89.89
15568;BME280;7885;42.596;23.044;2023-08-20T03:16:04;93197.22;;;20.25;89.47
15568;BME280;7885;42.596;23.044;2023-08-20T03:18:31;93188.63;;;20.23;89.32
15568;BME280;7885;42.596;23.044;2023-08-20T03:20:57;93194.25;;;20.32;88.69
15568;BME280;7885;42.596;23.044;2023-08-20T03:23:24;93177.88;;;20.25;88.86
15568;BME280;7885;42.596;23.044;2023-08-20T03:25:51;93191.22;;;20.39;88.35
15568;BME280;7885;42.596;23.044;2023-08-20T03:28:21;93197.16;;;20.50;88.21
15568;BME280;7885;42.596;23.044;2023-08-20T03:30:47;93198.09;;;20.56;88.26
15568;BME280;7885;42.596;23.044;2023-08-20T03:33:14;93200.56;;;20.54;88.22
15568;BME280;7885;42.596;23.044;2023-08-20T03:35:42;93174.06;;;20.44;87.50
15568;BME280;7885;42.596;23.044;2023-08-20T03:38:09;93203.50;;;20.60;87.49
15568;BME280;7885;42.596;23.044;2023-08-20T03:40:35;93188.13;;;20.59;87.73
15568;BME280;7885;42.596;23.044;2023-08-20T03:43:02;93192.56;;;20.56;87.93
15568;BME280;7885;42.596;23.044;2023-08-20T03:45:30;93190.88;;;20.59;87.85
15568;BME280;7885;42.596;23.044;2023-08-20T03:47:57;93187.44;;;20.67;87.29
15568;BME280;7885;42.596;23.044;2023-08-20T03:50:24;93194.50;;;20.69;87.59
15568;BME280;7885;42.596;23.044;2023-08-20T03:52:51;93179.56;;;20.66;87.84
15568;BME280;7885;42.596;23.044;2023-08-20T03:55:17;93186.22;;;20.69;86.13
15568;BME280;7885;42.596;23.044;2023-08-20T03:57:44;93184.97;;;20.70;86.19
15568;BME280;7885;42.596;23.044;2023-08-20T04:00:12;93195.63;;;20.80;84.71
15568;BME280;7885;42.596;23.044;2023-08-20T04:02:40;93192.34;;;20.73;86.88
15568;BME280;7885;42.596;23.044;2023-08-20T04:05:07;93194.50;;;20.69;86.66
15568;BME280;7885;42.596;23.044;2023-08-20T04:07:34;93191.09;;;20.64;86.22
15568;BME280;7885;42.596;23.044;2023-08-20T04:10:00;93190.50;;;20.70;86.15
15568;BME280;7885;42.596;23.044;2023-08-20T04:12:27;93197.63;;;20.80;85.34
15568;BME280;7885;42.596;23.044;2023-08-20T04:14:54;93177.91;;;20.69;85.68
15568;BME280;7885;42.596;23.044;2023-08-20T04:17:21;93179.13;;;20.67;85.10
15568;BME280;7885;42.596;23.044;2023-08-20T04:19:49;93168.63;;;20.62;84.80
15568;BME280;7885;42.596;23.044;2023-08-20T04:22:15;93178.03;;;20.65;84.98
15568;BME280;7885;42.596;23.044;2023-08-20T04:24:42;93192.44;;;20.82;84.99
15568;BME280;7885;42.596;23.044;2023-08-20T04:27:09;93195.50;;;20.84;84.87
15568;BME280;7885;42.596;23.044;2023-08-20T04:29:35;93199.81;;;20.85;84.98
15568;BME280;7885;42.596;23.044;2023-08-20T04:32:02;93207.22;;;20.88;84.90
15568;BME280;7885;42.596;23.044;2023-08-20T04:34:29;93206.31;;;20.91;84.84
15568;BME280;7885;42.596;23.044;2023-08-20T04:36:57;93203.84;;;20.93;84.24
15568;BME280;7885;42.596;23.044;2023-08-20T04:39:24;93206.81;;;20.98;84.03
15568;BME280;7885;42.596;23.044;2023-08-20T04:41:51;93214.06;;;21.05;84.18
15568;BME280;7885;42.596;23.044;2023-08-20T04:44:17;93199.47;;;21.04;84.02
15568;BME280;7885;42.596;23.044;2023-08-20T04:46:44;93208.66;;;21.23;83.61
15568;BME280;7885;42.596;23.044;2023-08-20T04:49:11;93206.34;;;21.31;84.55
15568;BME280;7885;42.596;23.044;2023-08-20T04:51:38;93203.94;;;21.33;82.55
15568;BME280;7885;42.596;23.044;2023-08-20T04:54:06;93213.66;;;21.46;82.81
15568;BME280;7885;42.596;23.044;2023-08-20T04:56:33;93214.75;;;21.49;82.41
15568;BME280;7885;42.596;23.044;2023-08-20T04:59:00;93208.75;;;21.50;82.28
15568;BME280;7885;42.596;23.044;2023-08-20T05:01:26;93209.97;;;21.40;82.67
15568;BME280;7885;42.596;23.044;2023-08-20T05:03:53;93206.09;;;21.38;82.45
15568;BME280;7885;42.596;23.044;2023-08-20T05:06:20;93214.09;;;21.36;82.22
15568;BME280;7885;42.596;23.044;2023-08-20T05:08:46;93191.91;;;21.27;81.73
15568;BME280;7885;42.596;23.044;2023-08-20T05:11:14;93219.19;;;21.37;81.81
15568;BME280;7885;42.596;23.044;2023-08-20T05:13:44;93225.19;;;21.45;82.06
15568;BME280;7885;42.596;23.044;2023-08-20T05:16:10;93218.84;;;21.35;81.83
15568;BME280;7885;42.596;23.044;2023-08-20T05:18:37;93211.81;;;21.43;81.95
15568;BME280;7885;42.596;23.044;2023-08-20T05:21:04;93208.28;;;21.43;82.34
15568;BME280;7885;42.596;23.044;2023-08-20T05:23:30;93205.34;;;21.37;82.04
15568;BME280;7885;42.596;23.044;2023-08-20T05:25:57;93179.13;;;21.20;81.96
15568;BME280;7885;42.596;23.044;2023-08-20T05:28:25;93193.63;;;21.33;81.81
15568;BME280;7885;42.596;23.044;2023-08-20T05:37:35;93222.97;;;21.71;81.60
15568;BME280;7885;42.596;23.044;2023-08-20T05:40:03;93230.84;;;21.81;81.09
15568;BME280;7885;42.596;23.044;2023-08-20T05:42:30;93217.97;;;21.96;81.56
15568;BME280;7885;42.596;23.044;2023-08-20T05:44:58;93201.81;;;22.04;81.34
15568;BME280;7885;42.596;23.044;2023-08-20T05:54:37;93217.56;;;22.43;78.15
15568;BME280;7885;42.596;23.044;2023-08-20T05:57:04;93225.28;;;22.57;78.30
15568;BME280;7885;42.596;23.044;2023-08-20T05:59:31;93216.94;;;22.57;78.66
15568;BME280;7885;42.596;23.044;2023-08-20T06:02:01;93221.25;;;22.77;78.48
15568;BME280;7885;42.596;23.044;2023-08-20T06:04:27;93217.09;;;22.90;77.34
15568;BME280;7885;42.596;23.044;2023-08-20T06:06:54;93205.19;;;22.99;77.44
15568;BME280;7885;42.596;23.044;2023-08-20T06:09:21;93211.81;;;23.01;75.73
15568;BME280;7885;42.596;23.044;2023-08-20T06:11:48;93226.44;;;23.20;75.46
15568;BME280;7885;42.596;23.044;2023-08-20T06:14:14;93224.53;;;23.35;75.89
15568;BME280;7885;42.596;23.044;2023-08-20T06:16:41;93230.66;;;23.48;75.59
15568;BME280;7885;42.596;23.044;2023-08-20T06:19:09;93225.44;;;23.50;74.11
15568;BME280;7885;42.596;23.044;2023-08-20T06:21:36;93235.59;;;23.53;73.38
15568;BME280;7885;42.596;23.044;2023-08-20T06:24:03;93227.38;;;23.59;73.17
15568;BME280;7885;42.596;23.044;2023-08-20T06:26:30;93229.38;;;23.68;72.89
15568;BME280;7885;42.596;23.044;2023-08-20T06:28:57;93232.41;;;23.79;72.96
15568;BME280;7885;42.596;23.044;2023-08-20T06:31:24;93242.53;;;23.91;72.75
15568;BME280;7885;42.596;23.044;2023-08-20T06:33:51;93237.22;;;24.02;71.95
15568;BME280;7885;42.596;23.044;2023-08-20T06:36:19;93239.34;;;24.16;72.54
15568;BME280;7885;42.596;23.044;2023-08-20T06:38:46;93243.53;;;24.35;71.17
15568;BME280;7885;42.596;23.044;2023-08-20T06:41:12;93232.25;;;24.53;71.78
15568;BME280;7885;42.596;23.044;2023-08-20T06:43:39;93240.16;;;24.70;70.71
15568;BME280;7885;42.596;23.044;2023-08-20T06:46:06;93230.72;;;24.91;72.63
15568;BME280;7885;42.596;23.044;2023-08-20T06:48:32;93231.63;;;25.11;70.91
15568;BME280;7885;42.596;23.044;2023-08-20T06:51:07;93237.19;;;25.26;68.97
15568;BME280;7885;42.596;23.044;2023-08-20T06:53:35;93237.75;;;25.45;70.79
15568;BME280;7885;42.596;23.044;2023-08-20T06:56:02;93240.56;;;25.59;69.25
15568;BME280;7885;42.596;23.044;2023-08-20T06:58:29;93232.06;;;25.69;67.68
15568;BME280;7885;42.596;23.044;2023-08-20T07:00:56;93232.25;;;25.80;69.18
15568;BME280;7885;42.596;23.044;2023-08-20T07:03:32;93222.16;;;25.82;67.01
15568;BME280;7885;42.596;23.044;2023-08-20T07:05:59;93234.41;;;26.05;66.83
15568;BME280;7885;42.596;23.044;2023-08-20T07:08:26;93212.84;;;26.20;68.08
15568;BME280;7885;42.596;23.044;2023-08-20T07:10:54;93237.34;;;26.51;64.83
15568;BME280;7885;42.596;23.044;2023-08-20T07:13:21;93219.97;;;26.61;64.01
15568;BME280;7885;42.596;23.044;2023-08-20T07:15:48;93231.66;;;26.86;61.28
15568;BME280;7885;42.596;23.044;2023-08-20T07:18:15;93232.19;;;26.84;61.14
15568;BME280;7885;42.596;23.044;2023-08-20T07:20:41;93226.06;;;27.06;60.90
15568;BME280;7885;42.596;23.044;2023-08-20T07:23:08;93239.69;;;27.44;59.96
15568;BME280;7885;42.596;23.044;2023-08-20T07:25:36;93243.44;;;27.67;58.79
15568;BME280;7885;42.596;23.044;2023-08-20T07:28:04;93244.28;;;27.79;58.82
15568;BME280;7885;42.596;23.044;2023-08-20T07:33:53;93235.31;;;27.69;58.65
15568;BME280;7885;42.596;23.044;2023-08-20T07:36:21;93236.97;;;27.87;58.53
15568;BME280;7885;42.596;23.044;2023-08-20T07:38:49;93235.81;;;28.04;57.97
15568;BME280;7885;42.596;23.044;2023-08-20T07:41:16;93228.53;;;28.13;55.45
15568;BME280;7885;42.596;23.044;2023-08-20T07:43:47;93249.31;;;28.06;55.89
15568;BME280;7885;42.596;23.044;2023-08-20T07:46:14;93248.16;;;28.18;57.12
15568;BME280;7885;42.596;23.044;2023-08-20T07:48:41;93255.53;;;28.21;56.20
15568;BME280;7885;42.596;23.044;2023-08-20T07:51:08;93235.50;;;27.97;55.91
15568;BME280;7885;42.596;23.044;2023-08-20T07:53:35;93253.19;;;27.83;55.30
15568;BME280;7885;42.596;23.044;2023-08-20T07:56:02;93243.34;;;27.87;55.68
15568;BME280;7885;42.596;23.044;2023-08-20T07:58:29;93241.09;;;27.97;55.52
15568;BME280;7885;42.596;23.044;2023-08-20T08:00:57;93243.72;;;28.06;55.17
15568;BME280;7885;42.596;23.044;2023-08-20T08:03:25;93244.75;;;28.45;54.38
15568;BME280;7885;42.596;23.044;2023-08-20T08:05:52;93234.13;;;28.60;51.61
15568;BME280;7885;42.596;23.044;2023-08-20T08:08:19;93240.91;;;28.96;51.61
15568;BME280;7885;42.596;23.044;2023-08-20T08:10:46;93242.47;;;29.08;49.42
15568;BME280;7885;42.596;23.044;2023-08-20T08:13:17;93235.81;;;29.00;50.01
15568;BME280;7885;42.596;23.044;2023-08-20T08:15:44;93241.63;;;28.75;48.55
15568;BME280;7885;42.596;23.044;2023-08-20T08:18:12;93240.06;;;28.74;49.88
15568;BME280;7885;42.596;23.044;2023-08-20T08:20:39;93243.41;;;28.78;49.75
15568;BME280;7885;42.596;23.044;2023-08-20T08:23:06;93238.28;;;28.71;50.00
15568;BME280;7885;42.596;23.044;2023-08-20T08:25:33;93241.47;;;28.52;49.90
15568;BME280;7885;42.596;23.044;2023-08-20T08:27:59;93235.09;;;28.46;48.75
15568;BME280;7885;42.596;23.044;2023-08-20T08:30:26;93237.66;;;28.55;48.69
15568;BME280;7885;42.596;23.044;2023-08-20T08:32:54;93215.88;;;28.76;47.81
15568;BME280;7885;42.596;23.044;2023-08-20T08:35:22;93237.19;;;29.27;47.29
15568;BME280;7885;42.596;23.044;2023-08-20T08:37:49;93212.25;;;29.74;46.66
15568;BME280;7885;42.596;23.044;2023-08-20T08:40:16;93237.78;;;30.09;42.61
15568;BME280;7885;42.596;23.044;2023-08-20T08:42:47;93229.88;;;30.13;39.47
15568;BME280;7885;42.596;23.044;2023-08-20T08:45:15;93233.66;;;30.43;39.88
15568;BME280;7885;42.596;23.044;2023-08-20T08:47:43;93240.22;;;30.63;41.46
15568;BME280;7885;42.596;23.044;2023-08-20T08:50:10;93215.81;;;30.41;41.74
15568;BME280;7885;42.596;23.044;2023-08-20T08:52:39;93217.03;;;30.40;41.25
15568;BME280;7885;42.596;23.044;2023-08-20T08:55:06;93234.16;;;30.36;40.34
15568;BME280;7885;42.596;23.044;2023-08-20T08:57:34;93241.34;;;30.26;41.09
15568;BME280;7885;42.596;23.044;2023-08-20T09:00:01;93221.69;;;29.93;41.29
15568;BME280;7885;42.596;23.044;2023-08-20T09:02:28;93237.25;;;29.72;42.02
15568;BME280;7885;42.596;23.044;2023-08-20T09:04:55;93239.28;;;29.77;42.41
15568;BME280;7885;42.596;23.044;2023-08-20T09:07:23;93244.66;;;29.86;41.33
15568;BME280;7885;42.596;23.044;2023-08-20T09:09:51;93236.75;;;30.01;40.58
15568;BME280;7885;42.596;23.044;2023-08-20T09:12:18;93241.34;;;29.93;38.55
15568;BME280;7885;42.596;23.044;2023-08-20T09:14:46;93242.88;;;29.94;39.47
15568;BME280;7885;42.596;23.044;2023-08-20T09:17:14;93230.88;;;29.82;40.26
15568;BME280;7885;42.596;23.044;2023-08-20T09:19:43;93236.75;;;29.90;41.62
15568;BME280;7885;42.596;23.044;2023-08-20T09:22:11;93238.31;;;29.91;40.81
15568;BME280;7885;42.596;23.044;2023-08-20T09:24:40;93233.44;;;29.86;40.16
15568;BME280;7885;42.596;23.044;2023-08-20T09:27:10;93227.53;;;30.28;39.89
15568;BME280;7885;42.596;23.044;2023-08-20T09:29:44;93231.69;;;31.01;38.58
15568;BME280;7885;42.596;23.044;2023-08-20T09:32:14;93227.31;;;31.52;36.67
15568;BME280;7885;42.596;23.044;2023-08-20T09:34:41;93218.56;;;31.62;36.43
15568;BME280;7885;42.596;23.044;2023-08-20T09:37:08;93242.66;;;31.87;35.90
15568;BME280;7885;42.596;23.044;2023-08-20T09:39:35;93232.69;;;31.50;36.64
15568;BME280;7885;42.596;23.044;2023-08-20T09:42:04;93229.94;;;31.39;36.61
15568;BME280;7885;42.596;23.044;2023-08-20T09:44:34;93230.31;;;31.19;37.19
15568;BME280;7885;42.596;23.044;2023-08-20T09:47:02;93226.31;;;31.44;37.15
15568;BME280;7885;42.596;23.044;2023-08-20T09:49:32;93227.97;;;31.70;36.17
15568;BME280;7885;42.596;23.044;2023-08-20T09:52:04;93206.63;;;32.15;36.37
15568;BME280;7885;42.596;23.044;2023-08-20T09:54:37;93222.78;;;32.63;34.67
15568;BME280;7885;42.596;23.044;2023-08-20T09:57:08;93222.53;;;32.85;35.30
15568;BME280;7885;42.596;23.044;2023-08-20T09:59:39;93227.63;;;33.11;35.35
15568;BME280;7885;42.596;23.044;2023-08-20T10:02:09;93223.91;;;32.97;31.83
15568;BME280;7885;42.596;23.044;2023-08-20T10:04:38;93222.53;;;33.04;32.75
15568;BME280;7885;42.596;23.044;2023-08-20T10:07:05;93215.72;;;33.18;32.56
15568;BME280;7885;42.596;23.044;2023-08-20T10:09:32;93231.28;;;33.43;32.43
15568;BME280;7885;42.596;23.044;2023-08-20T10:12:00;93230.91;;;34.03;33.52
15568;BME280;7885;42.596;23.044;2023-08-20T10:14:27;93225.84;;;34.15;32.28
15568;BME280;7885;42.596;23.044;2023-08-20T10:16:56;93202.44;;;34.33;32.09
15568;BME280;7885;42.596;23.044;2023-08-20T10:19:23;93203.97;;;34.34;30.32
15568;BME280;7885;42.596;23.044;2023-08-20T10:21:52;93231.91;;;34.50;31.08
15568;BME280;7885;42.596;23.044;2023-08-20T10:24:19;93221.13;;;34.36;30.67
15568;BME280;7885;42.596;23.044;2023-08-20T10:26:46;93218.63;;;34.32;30.51
15568;BME280;7885;42.596;23.044;2023-08-20T10:29:35;93221.44;;;34.45;30.58
15568;BME280;7885;42.596;23.044;2023-08-20T10:32:06;93214.72;;;34.48;30.11
15568;BME280;7885;42.596;23.044;2023-08-20T10:34:33;93219.69;;;34.29;31.08
15568;BME280;7885;42.596;23.044;2023-08-20T10:37:02;93221.69;;;34.61;31.40
15568;BME280;7885;42.596;23.044;2023-08-20T10:39:53;93201.28;;;34.81;29.32
15568;BME280;7885;42.596;23.044;2023-08-20T10:42:28;93209.75;;;34.68;29.68
15568;BME280;7885;42.596;23.044;2023-08-20T10:44:58;93227.25;;;34.79;30.27
15568;BME280;7885;42.596;23.044;2023-08-20T10:47:35;93217.81;;;34.64;28.76
15568;BME280;7885;42.596;23.044;2023-08-20T10:50:04;93209.75;;;34.68;30.46
15568;BME280;7885;42.596;23.044;2023-08-20T10:52:38;93220.19;;;34.73;29.70
15568;BME280;7885;42.596;23.044;2023-08-20T10:55:06;93206.81;;;34.86;30.05
15568;BME280;7885;42.596;23.044;2023-08-20T10:57:34;93223.91;;;34.81;29.29
15568;BME280;7885;42.596;23.044;2023-08-20T11:00:03;93225.19;;;34.93;28.41
15568;BME280;7885;42.596;23.044;2023-08-20T11:02:36;93201.03;;;34.39;28.47
15568;BME280;7885;42.596;23.044;2023-08-20T11:05:04;93208.63;;;34.44;28.93
15568;BME280;7885;42.596;23.044;2023-08-20T11:07:42;93213.22;;;34.47;29.57
15568;BME280;7885;42.596;23.044;2023-08-20T11:10:10;93214.22;;;34.76;29.24
15568;BME280;7885;42.596;23.044;2023-08-20T11:12:37;93210.16;;;34.45;29.15
15568;BME280;7885;42.596;23.044;2023-08-20T11:15:05;93207.13;;;34.57;28.74
15568;BME280;7885;42.596;23.044;2023-08-20T11:17:32;93196.28;;;34.74;29.48
15568;BME280;7885;42.596;23.044;2023-08-20T11:20:00;93199.56;;;34.65;28.48
15568;BME280;7885;42.596;23.044;2023-08-20T11:22:30;93189.09;;;34.73;28.48
15568;BME280;7885;42.596;23.044;2023-08-20T11:24:56;93194.97;;;34.88;28.08
15568;BME280;7885;42.596;23.044;2023-08-20T11:27:26;93176.94;;;34.65;28.19
15568;BME280;7885;42.596;23.044;2023-08-20T11:29:53;93188.00;;;34.63;28.93
15568;BME280;7885;42.596;23.044;2023-08-20T11:32:21;93201.16;;;34.73;28.84
15568;BME280;7885;42.596;23.044;2023-08-20T11:34:49;93197.69;;;34.80;28.38
15568;BME280;7885;42.596;23.044;2023-08-20T11:37:20;93196.72;;;34.78;28.27
15568;BME280;7885;42.596;23.044;2023-08-20T11:39:47;93183.00;;;34.69;28.48
15568;BME280;7885;42.596;23.044;2023-08-20T11:42:14;93193.44;;;34.74;28.38
15568;BME280;7885;42.596;23.044;2023-08-20T11:44:45;93191.81;;;34.78;29.06
15568;BME280;7885;42.596;23.044;2023-08-20T11:47:15;93178.44;;;34.92;28.96
15568;BME280;7885;42.596;23.044;2023-08-20T11:49:42;93187.31;;;35.09;28.44
15568;BME280;7885;42.596;23.044;2023-08-20T11:52:09;93167.78;;;34.85;29.00
15568;BME280;7885;42.596;23.044;2023-08-20T11:54:39;93174.94;;;34.99;28.27
15568;BME280;7885;42.596;23.044;2023-08-20T11:57:08;93176.22;;;35.11;28.98
15568;BME280;7885;42.596;23.044;2023-08-20T11:59:34;93180.59;;;35.12;27.98
15568;BME280;7885;42.596;23.044;2023-08-20T12:02:02;93179.50;;;35.15;28.38
15568;BME280;7885;42.596;23.044;2023-08-20T12:04:30;93189.28;;;35.14;28.14
15568;BME280;7885;42.596;23.044;2023-08-20T12:07:04;93176.66;;;35.15;28.05
15568;BME280;7885;42.596;23.044;2023-08-20T12:09:32;93180.31;;;35.36;27.93
15568;BME280;7885;42.596;23.044;2023-08-20T12:12:01;93182.63;;;35.59;27.73
15568;BME280;7885;42.596;23.044;2023-08-20T12:14:29;93178.69;;;35.28;27.28
15568;BME280;7885;42.596;23.044;2023-08-20T12:16:56;93178.41;;;35.05;27.24
15568;BME280;7885;42.596;23.044;2023-08-20T12:19:22;93162.72;;;35.04;27.26
15568;BME280;7885;42.596;23.044;2023-08-20T12:21:49;93171.44;;;34.93;28.15
15568;BME280;7885;42.596;23.044;2023-08-20T12:24:16;93163.50;;;35.05;28.79
15568;BME280;7885;42.596;23.044;2023-08-20T12:26:44;93162.53;;;35.15;28.34
15568;BME280;7885;42.596;23.044;2023-08-20T12:29:13;93154.88;;;35.10;28.21
15568;BME280;7885;42.596;23.044;2023-08-20T12:31:40;93156.09;;;35.15;28.81
15568;BME280;7885;42.596;23.044;2023-08-20T12:34:07;93155.19;;;35.33;27.74
15568;BME280;7885;42.596;23.044;2023-08-20T12:36:35;93153.31;;;35.35;28.61
15568;BME280;7885;42.596;23.044;2023-08-20T12:39:02;93153.88;;;35.34;28.81
15568;BME280;7885;42.596;23.044;2023-08-20T12:41:32;93152.25;;;35.25;28.39
15568;BME280;7885;42.596;23.044;2023-08-20T12:44:01;93134.66;;;35.19;28.71
15568;BME280;7885;42.596;23.044;2023-08-20T12:46:29;93153.47;;;35.51;29.06
15568;BME280;7885;42.596;23.044;2023-08-20T12:48:56;93150.22;;;35.46;28.31
15568;BME280;7885;42.596;23.044;2023-08-20T12:51:22;93148.75;;;35.32;28.00
15568;BME280;7885;42.596;23.044;2023-08-20T12:53:49;93152.88;;;35.31;28.73
15568;BME280;7885;42.596;23.044;2023-08-20T12:56:16;93139.28;;;35.30;28.95
15568;BME280;7885;42.596;23.044;2023-08-20T12:58:43;93143.81;;;34.99;28.83
15568;BME280;7885;42.596;23.044;2023-08-20T13:01:10;93150.31;;;35.07;29.54
15568;BME280;7885;42.596;23.044;2023-08-20T13:03:39;93152.31;;;35.12;29.70
15568;BME280;7885;42.596;23.044;2023-08-20T13:06:06;93142.63;;;34.94;29.42
15568;BME280;7885;42.596;23.044;2023-08-20T13:08:34;93159.78;;;35.10;29.18
15568;BME280;7885;42.596;23.044;2023-08-20T13:11:03;93131.94;;;35.00;29.52
15568;BME280;7885;42.596;23.044;2023-08-20T13:13:32;93142.28;;;34.98;29.00
15568;BME280;7885;42.596;23.044;2023-08-20T13:15:59;93139.91;;;34.89;29.53
15568;BME280;7885;42.596;23.044;2023-08-20T13:18:26;93143.56;;;35.10;29.44
15568;BME280;7885;42.596;23.044;2023-08-20T13:20:55;93129.34;;;34.89;29.82
15568;BME280;7885;42.596;23.044;2023-08-20T13:23:21;93141.66;;;34.66;29.29
15568;BME280;7885;42.596;23.044;2023-08-20T13:25:49;93154.94;;;34.58;30.33
15568;BME280;7885;42.596;23.044;2023-08-20T13:28:15;93139.16;;;34.62;30.40
15568;BME280;7885;42.596;23.044;2023-08-20T13:30:43;93142.09;;;34.83;31.05
15568;BME280;7885;42.596;23.044;2023-08-20T13:33:10;93145.34;;;35.13;30.71